Time;durP1;ratioP1;P1;durP2;ratioP2;P2;SDS_P1;SDS_P2;PMS_P1;PMS_P2;Temp;Humidity;BMP_temperature;BMP_pressure;BME280_temperature;BME280_humidity;BME280_pressure;Samples;Min_cycle;Max_cycle;Signal;HPM_P1;HPM_P2
2021/11/23 00:02:11;;;;;;;2.67;2.20;;;22.60;39.60;;;;;;5032464;28;20445;-73
2021/11/23 00:04:37;;;;;;;2.38;1.85;;;22.60;39.40;;;;;;5034668;28;20410;-74
2021/11/23 00:07:03;;;;;;;2.50;1.80;;;22.70;39.50;;;;;;5035896;28;20861;-74
2021/11/23 00:09:29;;;;;;;2.38;2.05;;;22.70;39.40;;;;;;5035621;28;20398;-74
2021/11/23 00:11:54;;;;;;;2.20;1.90;;;22.60;39.30;;;;;;5035757;28;20430;-74
2021/11/23 00:14:20;;;;;;;2.70;1.70;;;22.60;39.40;;;;;;5035683;28;20429;-73
2021/11/23 00:16:46;;;;;;;1.90;1.60;;;22.60;39.60;;;;;;5034392;28;20394;-68
2021/11/23 00:19:11;;;;;;;2.00;1.53;;;22.60;39.40;;;;;;5035660;28;20399;-72
2021/11/23 00:21:37;;;;;;;2.35;1.70;;;22.60;39.40;;;;;;5035582;28;20414;-74
2021/11/23 00:24:03;;;;;;;2.17;1.70;;;22.60;39.40;;;;;;5035230;28;20411;-74
2021/11/23 00:26:29;;;;;;;2.00;1.50;;;22.50;39.50;;;;;;5035642;28;20892;-74
2021/11/23 00:28:54;;;;;;;1.85;1.48;;;22.50;39.40;;;;;;5035425;28;20399;-74
2021/11/23 00:31:20;;;;;;;2.07;1.77;;;22.50;39.50;;;;;;5035497;28;20429;-74
2021/11/23 00:33:45;;;;;;;2.20;1.80;;;22.50;39.30;;;;;;5035252;28;20402;-73
2021/11/23 00:36:12;;;;;;;1.92;1.63;;;22.50;39.40;;;;;;5035313;28;20387;-74
2021/11/23 00:38:42;;;;;;;1.80;1.60;;;22.50;39.20;;;;;;5035255;28;20401;-74
2021/11/23 00:41:09;;;;;;;1.90;1.60;;;22.50;39.30;;;;;;5035260;28;20391;-74
2021/11/23 00:43:35;;;;;;;1.90;1.60;;;22.50;39.30;;;;;;5035009;28;20419;-74
2021/11/23 00:46:00;;;;;;;2.23;1.70;;;22.50;39.30;;;;;;5035041;28;20383;-74
2021/11/23 00:48:26;;;;;;;1.98;1.55;;;22.50;39.40;;;;;;5035098;28;20885;-73
2021/11/23 00:50:52;;;;;;;2.10;1.50;;;22.50;39.20;;;;;;5033757;28;20402;-73
2021/11/23 00:53:18;;;;;;;2.05;1.73;;;22.50;39.30;;;;;;5034982;28;20955;-73
2021/11/23 00:55:43;;;;;;;1.90;1.50;;;22.50;39.30;;;;;;5033715;28;20431;-75
2021/11/23 00:58:09;;;;;;;1.80;1.42;;;22.50;39.30;;;;;;5034875;28;20403;-74
2021/11/23 01:00:35;;;;;;;2.20;1.60;;;22.50;39.20;;;;;;5034838;28;20391;-67
2021/11/23 01:03:01;;;;;;;2.00;1.50;;;22.50;39.30;;;;;;5033639;28;20450;-73
2021/11/23 01:05:27;;;;;;;1.98;1.48;;;22.40;39.20;;;;;;5034814;28;20423;-73
2021/11/23 01:07:53;;;;;;;2.03;1.50;;;22.50;39.30;;;;;;5033526;28;20402;-73
2021/11/23 01:10:19;;;;;;;1.80;1.45;;;22.50;39.30;;;;;;5034855;28;20382;-74
2021/11/23 01:12:44;;;;;;;1.92;1.48;;;22.40;39.20;;;;;;5034584;28;20397;-75
2021/11/23 01:15:11;;;;;;;2.70;1.50;;;22.40;39.20;;;;;;5033504;28;20439;-73
2021/11/23 01:17:37;;;;;;;1.80;1.40;;;22.40;39.20;;;;;;5034519;28;20410;-74
2021/11/23 01:20:05;;;;;;;2.10;1.40;;;22.40;39.10;;;;;;5034553;28;20995;-67
2021/11/23 01:22:31;;;;;;;1.83;1.40;;;22.40;39.20;;;;;;5034338;28;20503;-73
2021/11/23 01:24:57;;;;;;;1.83;1.40;;;22.40;39.20;;;;;;5034276;28;20455;-72
2021/11/23 01:27:22;;;;;;;1.75;1.38;;;22.40;39.20;;;;;;5034424;28;20402;-74
2021/11/23 01:29:48;;;;;;;1.83;1.40;;;22.40;39.20;;;;;;5034277;28;20478;-74
2021/11/23 01:32:14;;;;;;;1.90;1.33;;;22.40;39.10;;;;;;5033105;28;20919;-73
2021/11/23 01:34:40;;;;;;;1.87;1.40;;;22.40;39.10;;;;;;5034245;28;20754;-74
2021/11/23 01:37:05;;;;;;;1.80;1.45;;;22.40;39.10;;;;;;5032854;28;20889;-72
2021/11/23 01:39:31;;;;;;;2.27;1.47;;;22.40;39.00;;;;;;5034337;28;20401;-74
2021/11/23 01:41:56;;;;;;;1.50;1.23;;;22.40;39.00;;;;;;5032896;28;20387;-74
2021/11/23 01:44:22;;;;;;;1.67;1.20;;;22.40;39.10;;;;;;5032743;28;20469;-74
2021/11/23 01:46:48;;;;;;;1.60;1.33;;;22.40;38.90;;;;;;5034044;28;20394;-74
2021/11/23 01:49:14;;;;;;;1.92;1.30;;;22.40;39.00;;;;;;5034000;28;20397;-74
2021/11/23 01:51:40;;;;;;;2.10;1.40;;;22.40;39.00;;;;;;5032705;28;20459;-74
2021/11/23 01:54:06;;;;;;;1.70;1.30;;;22.40;39.20;;;;;;5033817;28;20452;-74
2021/11/23 01:56:32;;;;;;;1.70;1.40;;;22.40;39.00;;;;;;5032583;28;20391;-69
2021/11/23 01:58:58;;;;;;;2.00;1.50;;;22.40;39.10;;;;;;5032708;28;20899;-72
2021/11/23 02:01:24;;;;;;;1.52;1.30;;;22.40;39.20;;;;;;5032502;28;20916;-74
2021/11/23 02:03:50;;;;;;;1.87;1.30;;;22.40;39.10;;;;;;5032321;28;20514;-75
2021/11/23 02:06:15;;;;;;;1.52;1.30;;;22.40;39.20;;;;;;5033603;28;20383;-75
2021/11/23 02:08:41;;;;;;;1.45;1.20;;;22.40;39.30;;;;;;5032433;28;20406;-74
2021/11/23 02:11:07;;;;;;;1.80;1.30;;;22.40;39.30;;;;;;5032339;28;20391;-73
2021/11/23 02:13:33;;;;;;;1.67;1.25;;;22.40;39.30;;;;;;5032185;28;20909;-72
2021/11/23 02:15:59;;;;;;;1.42;1.30;;;22.40;39.10;;;;;;5033505;28;20390;-72
2021/11/23 02:18:26;;;;;;;1.90;1.30;;;22.40;39.10;;;;;;5015787;28;20395;-72
2021/11/23 02:20:52;;;;;;;1.50;1.10;;;22.40;39.00;;;;;;5033380;28;20386;-73
2021/11/23 02:23:19;;;;;;;1.55;1.20;;;22.40;39.00;;;;;;5033264;28;20917;-73
2021/11/23 02:25:45;;;;;;;1.30;1.00;;;22.40;39.10;;;;;;5031587;28;20454;-72
2021/11/23 02:28:11;;;;;;;1.98;1.30;;;22.40;39.10;;;;;;5033268;28;20410;-73
2021/11/23 02:30:45;;;;;;;1.50;1.30;;;22.40;39.20;;;;;;5033111;28;20937;-73
2021/11/23 02:33:13;;;;;;;1.60;1.20;;;22.40;39.20;;;;;;5031906;28;20765;-73
2021/11/23 02:35:39;;;;;;;1.80;1.20;;;22.40;39.20;;;;;;5033167;28;20394;-73
2021/11/23 02:38:05;;;;;;;1.55;1.17;;;22.30;39.10;;;;;;5033045;28;20414;-73
2021/11/23 02:40:30;;;;;;;1.63;1.30;;;22.30;39.10;;;;;;5033029;28;20390;-73
2021/11/23 02:42:56;;;;;;;1.88;1.27;;;22.40;39.30;;;;;;5032995;28;20411;-72
2021/11/23 02:45:25;;;;;;;1.90;1.30;;;22.30;39.10;;;;;;5032782;28;20885;-73
2021/11/23 02:47:52;;;;;;;1.50;1.20;;;22.30;39.20;;;;;;5032836;28;20885;-71
2021/11/23 02:50:20;;;;;;;1.80;1.15;;;22.30;39.40;;;;;;5031549;28;20398;-72
2021/11/23 02:52:48;;;;;;;1.45;1.08;;;22.30;39.10;;;;;;5032736;28;20410;-73
2021/11/23 02:55:15;;;;;;;1.67;1.25;;;22.30;39.10;;;;;;5031474;28;20885;-73
2021/11/23 02:57:41;;;;;;;1.45;1.15;;;22.30;39.10;;;;;;5032740;28;20394;-73
2021/11/23 03:00:13;;;;;;;2.25;1.33;;;22.30;39.20;;;;;;5032619;28;20489;-73
2021/11/23 03:02:39;;;;;;;1.63;1.30;;;22.30;39.10;;;;;;5031123;28;20945;-73
2021/11/23 03:05:06;;;;;;;1.77;1.20;;;22.30;39.10;;;;;;5032543;28;20387;-72
2021/11/23 03:07:32;;;;;;;1.75;1.25;;;22.40;39.10;;;;;;5032480;28;20395;-72
2021/11/23 03:09:58;;;;;;;1.60;1.10;;;22.30;39.00;;;;;;5032522;28;20391;-73
2021/11/23 03:12:25;;;;;;;1.50;1.20;;;22.30;38.90;;;;;;5032410;28;20394;-73
2021/11/23 03:14:51;;;;;;;1.42;1.20;;;22.30;39.00;;;;;;5032364;28;20901;-74
2021/11/23 03:17:18;;;;;;;1.42;1.00;;;22.30;38.80;;;;;;5031095;28;20913;-73
2021/11/23 03:19:46;;;;;;;1.70;1.30;;;22.30;39.00;;;;;;5031018;28;20393;-71
2021/11/23 03:22:12;;;;;;;2.20;1.20;;;22.30;39.10;;;;;;5032198;28;20433;-73
2021/11/23 03:24:39;;;;;;;1.65;1.20;;;22.30;39.00;;;;;;5032017;28;20433;-73
2021/11/23 03:27:06;;;;;;;1.30;1.20;;;22.30;39.10;;;;;;5032297;28;20445;-71
2021/11/23 03:29:32;;;;;;;1.67;1.20;;;22.30;39.00;;;;;;5032108;28;20449;-72
2021/11/23 03:31:57;;;;;;;1.67;1.27;;;22.30;39.10;;;;;;5030802;28;20901;-72
2021/11/23 03:34:24;;;;;;;1.77;1.20;;;22.30;39.00;;;;;;5030876;28;20417;-72
2021/11/23 03:36:50;;;;;;;1.48;1.27;;;22.30;39.10;;;;;;5031442;28;20487;-73
2021/11/23 03:39:16;;;;;;;1.60;1.20;;;22.30;39.00;;;;;;5032150;28;20379;-73
2021/11/23 03:41:42;;;;;;;1.55;1.23;;;22.30;39.10;;;;;;5032023;28;20387;-73
2021/11/23 03:44:07;;;;;;;1.42;1.20;;;22.30;39.00;;;;;;5030645;28;20423;-72
2021/11/23 03:46:33;;;;;;;1.80;1.10;;;22.30;39.00;;;;;;5031969;28;20496;-72
2021/11/23 03:48:59;;;;;;;1.50;1.30;;;22.30;39.00;;;;;;5032006;28;20386;-71
2021/11/23 03:51:25;;;;;;;1.48;1.27;;;22.30;39.00;;;;;;5031920;28;20753;-72
2021/11/23 03:53:51;;;;;;;1.40;1.10;;;22.30;39.00;;;;;;5031843;28;20406;-73
2021/11/23 03:56:17;;;;;;;1.80;1.27;;;22.30;39.00;;;;;;5031934;28;20387;-71
2021/11/23 03:58:42;;;;;;;1.83;1.43;;;22.30;39.00;;;;;;5031840;28;20444;-73
2021/11/23 04:01:08;;;;;;;1.50;1.17;;;22.30;39.00;;;;;;5031869;28;20394;-71
2021/11/23 04:03:34;;;;;;;1.52;1.20;;;22.20;39.00;;;;;;5031713;28;20477;-72
2021/11/23 04:06:01;;;;;;;2.65;1.40;;;22.20;38.50;;;;;;5031780;28;20885;-73
2021/11/23 04:08:27;;;;;;;3.58;1.40;;;22.20;38.70;;;;;;5031832;28;20482;-71
2021/11/23 04:10:53;;;;;;;2.80;1.67;;;22.30;38.80;;;;;;5030426;28;20842;-73
2021/11/23 04:13:19;;;;;;;3.63;2.10;;;22.40;38.70;;;;;;5031632;28;20472;-73
2021/11/23 04:15:45;;;;;;;3.90;2.67;;;22.50;40.00;;;;;;5032076;28;20797;-74
2021/11/23 04:18:11;;;;;;;4.40;2.95;;;22.50;40.50;;;;;;5031770;28;20498;-72
2021/11/23 04:20:38;;;;;;;4.72;2.55;;;22.60;41.00;;;;;;5032108;28;20462;-68
2021/11/23 04:23:04;;;;;;;3.97;2.20;;;22.60;41.00;;;;;;5030327;28;20411;-74
2021/11/23 04:25:29;;;;;;;5.10;2.15;;;22.60;41.00;;;;;;5031213;28;20410;-76
2021/11/23 04:27:56;;;;;;;4.40;2.00;;;22.60;41.40;;;;;;5031345;28;20566;-75
2021/11/23 04:30:22;;;;;;;4.30;2.03;;;22.60;41.40;;;;;;5030028;28;20440;-74
2021/11/23 04:32:48;;;;;;;6.95;2.00;;;22.70;41.10;;;;;;5031310;28;20395;-74
2021/11/23 04:35:14;;;;;;;4.45;2.17;;;22.70;41.60;;;;;;5031075;28;20402;-75
2021/11/23 04:37:40;;;;;;;6.15;2.33;;;22.70;41.70;;;;;;5031444;28;20881;-71
2021/11/23 04:40:08;;;;;;;4.30;2.30;;;22.70;41.00;;;;;;5031345;28;20407;-75
2021/11/23 04:42:34;;;;;;;6.38;2.47;;;22.80;41.40;;;;;;5031306;28;20772;-74
2021/11/23 04:45:01;;;;;;;4.78;2.58;;;22.80;41.20;;;;;;5031473;28;20391;-73
2021/11/23 04:47:26;;;;;;;10.18;2.90;;;22.70;40.70;;;;;;5031522;28;20391;-71
2021/11/23 04:49:52;;;;;;;8.77;2.80;;;22.80;40.70;;;;;;5034523;28;20398;-75
2021/11/23 04:52:18;;;;;;;8.43;2.50;;;22.70;40.90;;;;;;5035018;28;20474;-72
2021/11/23 04:54:44;;;;;;;8.63;2.63;;;22.70;41.20;;;;;;5034717;28;20429;-72
2021/11/23 04:57:10;;;;;;;5.53;2.67;;;22.80;41.20;;;;;;5034770;28;20430;-74
2021/11/23 04:59:36;;;;;;;6.33;2.30;;;22.80;41.00;;;;;;5034766;28;20442;-75
2021/11/23 05:02:02;;;;;;;3.92;2.63;;;22.80;40.90;;;;;;5034614;28;20442;-72
2021/11/23 05:04:28;;;;;;;5.87;2.20;;;22.80;40.40;;;;;;5034724;28;20434;-74
2021/11/23 05:06:54;;;;;;;5.97;2.60;;;22.80;40.60;;;;;;5034707;28;20419;-72
2021/11/23 05:09:20;;;;;;;5.77;2.57;;;22.80;40.60;;;;;;5034671;28;20873;-72
2021/11/23 05:11:48;;;;;;;6.15;2.50;;;22.80;40.20;;;;;;5034595;28;20460;-75
2021/11/23 05:14:14;;;;;;;5.88;2.40;;;22.80;40.10;;;;;;5034637;28;20900;-75
2021/11/23 05:16:40;;;;;;;5.15;2.60;;;22.70;40.40;;;;;;5034430;28;20391;-75
2021/11/23 05:19:06;;;;;;;4.85;2.60;;;22.70;40.30;;;;;;5034669;28;20457;-67
2021/11/23 05:21:31;;;;;;;7.10;2.60;;;22.60;40.10;;;;;;5033182;28;20865;-74
2021/11/23 05:23:57;;;;;;;5.78;2.75;;;22.70;39.90;;;;;;5034153;28;20762;-76
2021/11/23 05:26:23;;;;;;;8.07;2.63;;;22.60;39.70;;;;;;5033278;28;20411;-72
2021/11/23 05:28:49;;;;;;;6.15;2.55;;;22.60;39.30;;;;;;5032953;28;20486;-74
2021/11/23 05:31:14;;;;;;;6.40;2.60;;;22.70;39.90;;;;;;5031691;28;20399;-75
2021/11/23 05:33:40;;;;;;;5.03;2.67;;;22.60;40.10;;;;;;5032372;28;20769;-69
2021/11/23 05:36:06;;;;;;;5.50;2.60;;;22.60;40.20;;;;;;5034005;28;20395;-76
2021/11/23 05:38:31;;;;;;;5.47;2.65;;;22.60;40.50;;;;;;5034213;28;20391;-73
2021/11/23 05:40:57;;;;;;;7.53;2.60;;;22.60;40.50;;;;;;5026321;28;20395;-68
2021/11/23 05:43:23;;;;;;;4.47;2.40;;;22.60;40.50;;;;;;5020277;28;20424;-74
2021/11/23 05:45:48;;;;;;;5.63;2.40;;;22.60;40.10;;;;;;5032504;28;20482;-70
2021/11/23 05:48:14;;;;;;;12.07;2.70;;;22.70;40.30;;;;;;5035209;28;20897;-75
2021/11/23 05:50:40;;;;;;;7.13;2.23;;;22.70;40.00;;;;;;5034424;28;20391;-68
2021/11/23 05:53:06;;;;;;;5.03;2.15;;;22.60;39.90;;;;;;5033808;28;20935;-71
2021/11/23 05:55:33;;;;;;;6.85;2.20;;;22.60;40.20;;;;;;5033710;28;20470;-67
2021/11/23 05:57:59;;;;;;;6.25;2.30;;;22.60;39.60;;;;;;5033579;28;20876;-68
2021/11/23 06:00:25;;;;;;;5.57;2.35;;;22.60;39.40;;;;;;5033219;28;20452;-69
2021/11/23 06:02:51;;;;;;;5.33;2.50;;;22.60;39.70;;;;;;5033476;28;20495;-69
2021/11/23 06:05:17;;;;;;;4.43;2.50;;;22.50;39.60;;;;;;5032474;28;20399;-67
2021/11/23 06:07:42;;;;;;;3.85;2.38;;;22.50;39.60;;;;;;5030968;28;20390;-67
2021/11/23 06:10:08;;;;;;;5.57;2.70;;;22.50;40.00;;;;;;5031240;28;20486;-67
2021/11/23 06:12:34;;;;;;;5.13;2.60;;;22.50;39.40;;;;;;5033003;28;20391;-73
2021/11/23 06:15:00;;;;;;;3.50;2.50;;;22.50;39.30;;;;;;5033233;28;20418;-72
2021/11/23 06:17:29;;;;;;;4.97;2.53;;;22.50;39.30;;;;;;5031639;28;20408;-72
2021/11/23 06:19:55;;;;;;;5.22;2.35;;;22.50;39.20;;;;;;5032299;28;20976;-73
2021/11/23 06:22:22;;;;;;;4.07;2.37;;;22.50;39.10;;;;;;5032806;28;20460;-75
2021/11/23 06:24:48;;;;;;;3.55;2.50;;;22.50;39.00;;;;;;5028700;28;22205;-74
2021/11/23 06:27:14;;;;;;;3.90;2.50;;;22.50;39.10;;;;;;5032372;28;20462;-67
2021/11/23 06:29:40;;;;;;;3.90;2.50;;;22.50;39.00;;;;;;5031274;28;20404;-70
2021/11/23 06:32:06;;;;;;;3.65;2.53;;;22.50;39.00;;;;;;5030920;28;20403;-70
2021/11/23 06:34:31;;;;;;;4.25;2.50;;;22.50;39.00;;;;;;5029588;28;20789;-68
2021/11/23 06:36:58;;;;;;;3.72;2.40;;;22.50;38.90;;;;;;5030841;28;20405;-68
2021/11/23 06:39:24;;;;;;;3.72;2.65;;;22.50;38.90;;;;;;5032133;28;20856;-64
2021/11/23 06:41:50;;;;;;;3.42;2.38;;;22.40;38.90;;;;;;5031960;28;20446;-73
2021/11/23 06:44:16;;;;;;;3.67;2.20;;;22.40;38.80;;;;;;5031623;28;20454;-69
2021/11/23 06:46:41;;;;;;;3.30;2.57;;;22.40;38.80;;;;;;5032268;28;20445;-72
2021/11/23 06:49:07;;;;;;;4.38;2.60;;;22.40;38.80;;;;;;5032337;28;20403;-66
2021/11/23 06:51:33;;;;;;;3.00;2.43;;;22.40;38.70;;;;;;5032152;28;20886;-71
2021/11/23 06:53:59;;;;;;;3.13;2.38;;;22.30;38.70;;;;;;5031052;28;20907;-67
2021/11/23 06:56:25;;;;;;;3.00;2.33;;;22.40;38.80;;;;;;5031272;28;20387;-71
2021/11/23 06:58:51;;;;;;;4.10;2.45;;;22.30;38.70;;;;;;5032253;28;20394;-72
2021/11/23 07:01:17;;;;;;;2.83;2.28;;;22.30;38.70;;;;;;5031983;28;20380;-73
2021/11/23 07:03:42;;;;;;;2.83;2.13;;;22.30;38.80;;;;;;5032018;28;20426;-73
2021/11/23 07:06:08;;;;;;;3.08;2.20;;;22.30;38.70;;;;;;5032172;28;20383;-72
2021/11/23 07:08:36;;;;;;;2.60;2.07;;;22.30;38.70;;;;;;5031870;28;20396;-71
2021/11/23 07:11:02;;;;;;;3.13;2.20;;;22.30;38.70;;;;;;5031744;28;20395;-73
2021/11/23 07:13:28;;;;;;;3.03;2.25;;;22.20;38.60;;;;;;5031322;28;20383;-72
2021/11/23 07:15:54;;;;;;;2.50;2.20;;;22.20;38.70;;;;;;5031925;28;20741;-73
2021/11/23 07:18:20;;;;;;;3.90;2.20;;;22.20;38.60;;;;;;5031859;28;20403;-69
2021/11/23 07:20:46;;;;;;;2.85;2.25;;;22.20;38.50;;;;;;5031797;28;20387;-71
2021/11/23 07:23:13;;;;;;;2.63;2.30;;;22.20;38.50;;;;;;5031640;28;20423;-70
2021/11/23 07:25:38;;;;;;;2.63;2.20;;;22.20;38.60;;;;;;5030263;28;20477;-73
2021/11/23 07:28:04;;;;;;;2.95;2.30;;;22.20;38.50;;;;;;5031652;28;20417;-72
2021/11/23 07:30:30;;;;;;;3.47;2.20;;;22.20;38.50;;;;;;5031233;28;20470;-66
2021/11/23 07:32:56;;;;;;;2.60;2.40;;;22.20;38.50;;;;;;5030621;28;20403;-70
2021/11/23 07:35:22;;;;;;;4.03;2.35;;;22.20;38.50;;;;;;5029931;28;20402;-67
2021/11/23 07:37:48;;;;;;;2.90;2.30;;;22.20;38.50;;;;;;5031317;28;20449;-70
2021/11/23 07:40:15;;;;;;;3.38;2.63;;;22.20;38.50;;;;;;5031601;28;20474;-67
2021/11/23 07:42:42;;;;;;;3.80;2.50;;;22.20;38.50;;;;;;5031297;28;20411;-71
2021/11/23 07:45:08;;;;;;;3.45;2.53;;;22.10;38.40;;;;;;5031575;28;20854;-70
2021/11/23 07:47:34;;;;;;;3.20;2.30;;;22.20;38.50;;;;;;5030193;28;20478;-65
2021/11/23 07:50:00;;;;;;;2.90;2.50;;;22.20;38.50;;;;;;5030169;28;20395;-70
2021/11/23 07:52:26;;;;;;;4.05;2.38;;;22.20;38.50;;;;;;5030219;28;20753;-69
2021/11/23 07:54:51;;;;;;;2.78;2.33;;;22.10;38.40;;;;;;5031273;28;20405;-68
2021/11/23 07:57:17;;;;;;;2.88;2.42;;;22.20;38.40;;;;;;5031416;28;20470;-68
2021/11/23 07:59:43;;;;;;;3.07;2.60;;;22.10;38.40;;;;;;5031260;28;20510;-70
2021/11/23 08:02:08;;;;;;;2.80;2.50;;;22.10;38.30;;;;;;5029931;28;20401;-69
2021/11/23 08:04:34;;;;;;;2.60;2.40;;;22.10;38.40;;;;;;5031569;28;20453;-67
2021/11/23 08:07:00;;;;;;;3.10;2.47;;;22.10;38.30;;;;;;5031332;28;20462;-68
2021/11/23 08:09:26;;;;;;;2.90;2.57;;;22.20;38.40;;;;;;5031319;28;20531;-67
2021/11/23 08:11:51;;;;;;;4.35;2.85;;;22.20;38.20;;;;;;5031247;28;20726;-67
2021/11/23 08:14:17;;;;;;;4.67;3.10;;;22.30;38.20;;;;;;5031083;28;20773;-67
2021/11/23 08:16:43;;;;;;;5.15;3.95;;;22.30;38.60;;;;;;5030880;28;20418;-69
2021/11/23 08:19:08;;;;;;;2.90;2.57;;;22.30;40.40;;;;;;5030628;28;20403;-68
2021/11/23 08:21:34;;;;;;;2.75;2.42;;;22.40;39.30;;;;;;5027391;28;20517;-73
2021/11/23 08:24:00;;;;;;;4.27;2.50;;;22.30;39.00;;;;;;5031628;28;20423;-70
2021/11/23 08:26:26;;;;;;;2.92;2.42;;;22.30;38.90;;;;;;5034086;28;20479;-72
2021/11/23 08:28:52;;;;;;;3.58;2.53;;;22.30;38.80;;;;;;5034765;28;20452;-71
2021/11/23 08:31:18;;;;;;;3.58;2.40;;;22.30;38.70;;;;;;5035113;28;20405;-72
2021/11/23 08:33:45;;;;;;;3.35;2.60;;;22.30;38.70;;;;;;5034184;28;20880;-67
2021/11/23 08:36:11;;;;;;;2.80;2.38;;;22.30;38.70;;;;;;5033540;28;20445;-72
2021/11/23 08:38:37;;;;;;;3.00;2.50;;;22.30;38.70;;;;;;5034541;28;20444;-72
2021/11/23 08:41:04;;;;;;;2.85;2.30;;;22.30;38.60;;;;;;5033592;28;20430;-72
2021/11/23 08:43:30;;;;;;;3.08;2.40;;;22.30;38.60;;;;;;5032162;28;20811;-70
2021/11/23 08:45:56;;;;;;;3.60;2.22;;;22.30;38.70;;;;;;5032424;28;20483;-67
2021/11/23 08:48:22;;;;;;;2.50;2.25;;;22.30;38.60;;;;;;5034639;28;20387;-72
2021/11/23 08:50:48;;;;;;;2.80;2.40;;;22.30;38.50;;;;;;5034875;28;20410;-74
2021/11/23 08:53:14;;;;;;;2.70;2.30;;;22.30;38.40;;;;;;5024935;28;21021;-68
2021/11/23 08:55:40;;;;;;;2.83;2.25;;;22.30;38.20;;;;;;5033088;28;20391;-71
2021/11/23 08:58:07;;;;;;;2.70;2.10;;;22.30;38.30;;;;;;5033329;28;20422;-73
2021/11/23 09:00:35;;;;;;;2.90;2.30;;;22.30;38.40;;;;;;5033493;28;20521;-73
2021/11/23 09:03:00;;;;;;;3.05;2.25;;;22.20;38.40;;;;;;5030356;28;20406;-72
2021/11/23 09:05:32;;;;;;;2.55;2.15;;;22.20;38.40;;;;;;5032877;28;20912;-68
2021/11/23 09:08:01;;;;;;;3.50;2.10;;;22.30;38.40;;;;;;5032916;28;20864;-73
2021/11/23 09:10:29;;;;;;;2.55;2.10;;;22.30;38.40;;;;;;5031531;28;20407;-73
2021/11/23 09:12:58;;;;;;;2.60;2.35;;;22.30;38.40;;;;;;5032992;28;20410;-72
2021/11/23 09:15:26;;;;;;;3.07;2.17;;;22.30;38.30;;;;;;5031465;28;20398;-73
2021/11/23 09:17:52;;;;;;;2.80;2.10;;;22.20;38.30;;;;;;5031402;28;20834;-69
2021/11/23 09:20:19;;;;;;;2.40;2.20;;;22.20;38.20;;;;;;5062472;28;20856;-73
2021/11/23 09:22:45;;;;;;;2.50;2.20;;;22.20;38.20;;;;;;5032911;28;20423;-73
2021/11/23 09:25:13;;;;;;;2.67;2.10;;;22.20;38.20;;;;;;5031253;28;20419;-73
2021/11/23 09:27:39;;;;;;;3.08;2.20;;;22.20;38.20;;;;;;5031399;28;20405;-72
2021/11/23 09:30:10;;;;;;;2.50;2.08;;;22.20;38.20;;;;;;5030800;28;20484;-72
2021/11/23 09:32:36;;;;;;;2.75;2.30;;;22.20;38.20;;;;;;5030317;28;20407;-68
2021/11/23 09:35:02;;;;;;;2.75;2.38;;;22.20;38.10;;;;;;5028175;28;20410;-70
2021/11/23 09:37:28;;;;;;;2.58;2.10;;;22.20;38.10;;;;;;5030716;28;20383;-72
2021/11/23 09:39:54;;;;;;;2.80;2.15;;;22.30;38.10;;;;;;5033394;28;20753;-68
2021/11/23 09:42:20;;;;;;;2.77;2.20;;;22.20;38.00;;;;;;5032894;28;20394;-71
2021/11/23 09:44:46;;;;;;;2.67;2.40;;;22.30;38.00;;;;;;5032444;28;20978;-73
2021/11/23 09:47:13;;;;;;;2.38;2.15;;;22.20;38.00;;;;;;5032191;28;20391;-73
2021/11/23 09:49:39;;;;;;;3.30;2.20;;;22.20;38.00;;;;;;5031964;28;20403;-73
2021/11/23 09:52:07;;;;;;;2.70;2.22;;;22.20;38.00;;;;;;5031772;28;20441;-73
2021/11/23 09:54:33;;;;;;;3.07;2.10;;;22.20;38.00;;;;;;5032089;28;20485;-73
2021/11/23 09:56:59;;;;;;;2.63;2.20;;;22.20;38.00;;;;;;5032022;28;20452;-73
2021/11/23 09:59:25;;;;;;;2.28;2.00;;;22.20;38.00;;;;;;5028270;28;20453;-74
2021/11/23 10:01:55;;;;;;;2.63;2.30;;;22.20;38.10;;;;;;5028545;28;20407;-68
2021/11/23 10:04:23;;;;;;;2.80;2.28;;;22.20;38.00;;;;;;5027629;28;20430;-71
2021/11/23 10:07:20;;;;;;;2.92;2.20;;;22.20;38.00;;;;;;5030488;28;20447;-74
2021/11/23 10:09:46;;;;;;;2.78;2.10;;;22.20;38.10;;;;;;5029786;28;20399;-74
2021/11/23 10:12:16;;;;;;;2.53;2.10;;;22.20;38.00;;;;;;5031615;28;20405;-74
2021/11/23 10:15:15;;;;;;;2.90;2.10;;;22.20;38.10;;;;;;5030394;28;20455;-74
2021/11/23 10:17:44;;;;;;;2.47;2.17;;;22.20;38.00;;;;;;5031412;28;20383;-73
2021/11/23 10:20:39;;;;;;;3.13;2.20;;;22.30;37.90;;;;;;5019577;28;20487;-73
2021/11/23 10:23:21;;;;;;;2.40;2.10;;;22.20;38.00;;;;;;5028657;28;20415;-74
2021/11/23 10:25:49;;;;;;;2.60;2.20;;;22.30;37.90;;;;;;5027265;28;20419;-73
2021/11/23 10:28:16;;;;;;;5.78;2.33;;;22.30;37.90;;;;;;5031584;28;20453;-72
2021/11/23 10:30:45;;;;;;;4.38;2.22;;;22.30;38.10;;;;;;5029909;28;20412;-74
2021/11/23 10:33:11;;;;;;;3.73;2.13;;;22.40;39.00;;;;;;5030591;28;20399;-73
2021/11/23 10:35:39;;;;;;;5.63;2.30;;;22.40;39.60;;;;;;5028823;28;20426;-69
2021/11/23 10:38:08;;;;;;;3.22;2.35;;;22.40;39.40;;;;;;5027187;28;20864;-72
2021/11/23 10:40:35;;;;;;;3.08;2.13;;;22.50;39.60;;;;;;5030122;28;20760;-70
2021/11/23 10:43:05;;;;;;;5.38;2.25;;;22.50;39.60;;;;;;5028346;28;20419;-74
2021/11/23 10:45:37;;;;;;;7.57;2.88;;;22.50;39.60;;;;;;5029119;28;20944;-68
2021/11/23 10:48:05;;;;;;;5.00;2.15;;;22.50;40.10;;;;;;5029940;28;20391;-69
2021/11/23 10:50:31;;;;;;;4.03;2.40;;;22.60;40.00;;;;;;5030607;28;20461;-74
2021/11/23 10:53:12;;;;;;;4.80;2.53;;;22.50;40.10;;;;;;5030219;28;20403;-70
2021/11/23 10:55:41;;;;;;;4.75;2.22;;;22.60;40.40;;;;;;5029645;28;20861;-72
2021/11/23 10:58:09;;;;;;;4.50;2.50;;;22.60;40.10;;;;;;5028014;28;20457;-73
2021/11/23 11:00:40;;;;;;;5.65;1.80;;;22.60;40.20;;;;;;5029759;28;20395;-73
2021/11/23 11:03:07;;;;;;;3.15;2.10;;;22.70;39.90;;;;;;5023799;28;20422;-69
2021/11/23 11:05:39;;;;;;;3.25;2.10;;;22.70;39.70;;;;;;5030049;28;20401;-73
2021/11/23 11:08:07;;;;;;;4.25;2.33;;;22.70;39.60;;;;;;5025370;28;20395;-66
2021/11/23 11:10:35;;;;;;;4.50;2.20;;;22.60;39.10;;;;;;5030354;28;20486;-71
2021/11/23 11:13:04;;;;;;;3.63;2.15;;;22.60;38.90;;;;;;5030315;28;20429;-73
2021/11/23 11:15:43;;;;;;;2.70;2.00;;;22.60;38.70;;;;;;5029742;28;20387;-74
2021/11/23 11:18:12;;;;;;;2.90;2.00;;;22.60;38.50;;;;;;5027171;28;20391;-73
2021/11/23 11:20:44;;;;;;;2.97;2.00;;;22.70;38.50;;;;;;5030453;28;20426;-72
2021/11/23 11:23:31;;;;;;;2.33;1.83;;;22.80;38.30;;;;;;5041632;28;20508;-68
2021/11/23 11:28:51;;;;;;;2.30;1.70;;;22.70;37.90;;;;;;5025242;28;20391;-74
2021/11/23 11:31:39;;;;;;;2.50;1.80;;;22.70;37.90;;;;;;5030156;28;20391;-73
2021/11/23 11:34:25;;;;;;;3.42;1.98;;;22.70;38.00;;;;;;5027882;28;20517;-67
2021/11/23 11:37:09;;;;;;;2.42;1.90;;;22.80;37.90;;;;;;5027217;28;20402;-66
2021/11/23 11:39:40;;;;;;;2.05;1.75;;;22.70;37.70;;;;;;5029042;28;20403;-71
2021/11/23 11:42:28;;;;;;;2.43;1.87;;;22.80;37.80;;;;;;5027777;28;20395;-70
2021/11/23 11:44:55;;;;;;;1.98;1.70;;;22.80;37.80;;;;;;5028724;28;20493;-73
2021/11/23 11:47:35;;;;;;;2.30;1.70;;;22.80;37.70;;;;;;5028806;28;20403;-73
2021/11/23 11:50:07;;;;;;;2.38;1.70;;;22.80;37.80;;;;;;5028496;28;20411;-73
2021/11/23 11:53:03;;;;;;;2.17;1.60;;;22.70;37.80;;;;;;5030166;28;20387;-69
2021/11/23 11:55:32;;;;;;;2.30;1.75;;;22.80;37.70;;;;;;5029484;28;20387;-71
2021/11/23 11:58:01;;;;;;;2.45;1.65;;;22.80;37.60;;;;;;5026960;28;20402;-71
2021/11/23 12:00:32;;;;;;;1.83;1.60;;;22.80;37.60;;;;;;5027864;28;20445;-70
2021/11/23 12:03:23;;;;;;;2.10;1.70;;;22.80;37.60;;;;;;5026568;28;20421;-73
2021/11/23 12:06:05;;;;;;;2.20;1.80;;;22.80;37.50;;;;;;5028005;28;20398;-69
2021/11/23 12:08:33;;;;;;;2.83;1.88;;;22.80;37.50;;;;;;5028944;28;20393;-73
2021/11/23 12:11:12;;;;;;;1.70;1.50;;;22.80;37.40;;;;;;5027564;28;21174;-67
2021/11/23 12:13:58;;;;;;;2.00;1.50;;;22.80;37.40;;;;;;5022979;28;20909;-73
2021/11/23 12:16:35;;;;;;;2.10;1.65;;;22.80;37.30;;;;;;5027248;28;20465;-73
2021/11/23 12:19:17;;;;;;;2.22;1.70;;;22.80;37.30;;;;;;5042255;28;20545;-74
2021/11/23 12:21:53;;;;;;;2.22;1.75;;;22.80;37.30;;;;;;5026125;28;20456;-71
2021/11/23 12:24:31;;;;;;;1.67;1.50;;;22.80;37.20;;;;;;5029622;28;20820;-67
2021/11/23 12:27:10;;;;;;;2.50;1.70;;;22.80;37.10;;;;;;5030172;28;20398;-70
2021/11/23 12:29:36;;;;;;;2.28;1.88;;;22.70;37.30;;;;;;5034002;28;20389;-74
2021/11/23 12:32:02;;;;;;;2.83;1.70;;;22.80;37.40;;;;;;5051371;28;20386;-72
2021/11/23 12:34:27;;;;;;;2.05;1.77;;;22.80;37.30;;;;;;5049859;28;20423;-73
2021/11/23 12:36:56;;;;;;;2.13;1.55;;;22.90;37.90;;;;;;5051314;28;20385;-74
2021/11/23 12:39:39;;;;;;;2.97;1.80;;;22.80;37.20;;;;;;5051122;28;20458;-73
2021/11/23 12:42:09;;;;;;;1.83;1.50;;;22.90;37.20;;;;;;5052270;28;20389;-70
2021/11/23 12:44:42;;;;;;;2.42;1.60;;;22.90;37.10;;;;;;5042977;28;20422;-72
2021/11/23 12:47:14;;;;;;;1.95;1.50;;;22.80;37.10;;;;;;5027022;28;20403;-71
2021/11/23 12:49:42;;;;;;;2.17;1.50;;;22.90;37.30;;;;;;5030912;28;20395;-68
2021/11/23 12:52:13;;;;;;;2.38;1.50;;;22.90;37.20;;;;;;5031244;28;20462;-74
2021/11/23 12:54:45;;;;;;;2.77;1.57;;;22.90;37.20;;;;;;5031317;28;20479;-73